sensor_id;sensor_type;location;lat;lon;timestamp;temperature;humidity
316;DHT22;14128;48.686;9.738;2023-03-23T00:01:57;8.90;99.90
316;DHT22;14128;48.686;9.738;2023-03-23T00:04:23;8.90;99.90
316;DHT22;14128;48.686;9.738;2023-03-23T00:06:53;9.00;99.90
316;DHT22;14128;48.686;9.738;2023-03-23T00:09:20;9.00;99.90
316;DHT22;14128;48.686;9.738;2023-03-23T00:11:49;9.10;98.90
316;DHT22;14128;48.686;9.738;2023-03-23T00:14:17;9.10;99.90
316;DHT22;14128;48.686;9.738;2023-03-23T00:16:48;9.10;99.90
316;DHT22;14128;48.686;9.738;2023-03-23T00:19:16;9.10;99.90
316;DHT22;14128;48.686;9.738;2023-03-23T00:21:45;9.10;99.90
316;DHT22;14128;48.686;9.738;2023-03-23T00:24:14;9.10;99.90
316;DHT22;14128;48.686;9.738;2023-03-23T00:26:43;9.20;99.90
316;DHT22;14128;48.686;9.738;2023-03-23T00:29:13;9.20;99.90
316;DHT22;14128;48.686;9.738;2023-03-23T00:31:41;9.20;99.90
316;DHT22;14128;48.686;9.738;2023-03-23T00:34:12;9.20;1.00
316;DHT22;14128;48.686;9.738;2023-03-23T00:36:45;9.30;99.90
316;DHT22;14128;48.686;9.738;2023-03-23T00:39:14;9.30;99.90
316;DHT22;14128;48.686;9.738;2023-03-23T00:41:41;9.30;99.90
316;DHT22;14128;48.686;9.738;2023-03-23T00:44:08;9.30;1.00
316;DHT22;14128;48.686;9.738;2023-03-23T00:46:35;9.30;99.90
316;DHT22;14128;48.686;9.738;2023-03-23T00:49:11;9.30;1.00
316;DHT22;14128;48.686;9.738;2023-03-23T00:51:39;9.40;99.90
316;DHT22;14128;48.686;9.738;2023-03-23T00:54:06;9.30;99.90
316;DHT22;14128;48.686;9.738;2023-03-23T00:56:34;9.30;99.90
316;DHT22;14128;48.686;9.738;2023-03-23T00:59:01;9.40;99.90
316;DHT22;14128;48.686;9.738;2023-03-23T01:01:29;9.40;99.90
316;DHT22;14128;48.686;9.738;2023-03-23T01:03:57;9.40;99.90
316;DHT22;14128;48.686;9.738;2023-03-23T01:06:27;9.40;99.90
316;DHT22;14128;48.686;9.738;2023-03-23T01:08:56;9.40;1.00
316;DHT22;14128;48.686;9.738;2023-03-23T01:11:24;9.40;99.90
316;DHT22;14128;48.686;9.738;2023-03-23T01:13:52;9.40;99.90
316;DHT22;14128;48.686;9.738;2023-03-23T01:16:19;9.50;99.90
316;DHT22;14128;48.686;9.738;2023-03-23T01:18:47;9.50;99.90
316;DHT22;14128;48.686;9.738;2023-03-23T01:21:17;9.50;1.00
316;DHT22;14128;48.686;9.738;2023-03-23T01:23:44;9.50;99.90
316;DHT22;14128;48.686;9.738;2023-03-23T01:26:13;9.50;3.10
316;DHT22;14128;48.686;9.738;2023-03-23T01:28:41;9.50;99.90
316;DHT22;14128;48.686;9.738;2023-03-23T01:31:11;9.50;99.90
316;DHT22;14128;48.686;9.738;2023-03-23T01:33:38;9.50;1.00
316;DHT22;14128;48.686;9.738;2023-03-23T01:36:07;9.60;1.00
316;DHT22;14128;48.686;9.738;2023-03-23T01:38:35;9.60;99.90
316;DHT22;14128;48.686;9.738;2023-03-23T01:41:02;9.60;99.90
316;DHT22;14128;48.686;9.738;2023-03-23T01:43:29;9.60;99.90
316;DHT22;14128;48.686;9.738;2023-03-23T01:45:57;9.60;99.90
316;DHT22;14128;48.686;9.738;2023-03-23T01:48:27;9.70;1.00
316;DHT22;14128;48.686;9.738;2023-03-23T01:50:58;9.70;1.00
316;DHT22;14128;48.686;9.738;2023-03-23T01:53:28;9.70;1.00
316;DHT22;14128;48.686;9.738;2023-03-23T01:55:57;9.70;1.00
316;DHT22;14128;48.686;9.738;2023-03-23T01:58:27;9.70;99.90
316;DHT22;14128;48.686;9.738;2023-03-23T02:00:57;9.70;1.00
316;DHT22;14128;48.686;9.738;2023-03-23T02:03:28;9.70;1.00
316;DHT22;14128;48.686;9.738;2023-03-23T02:05:57;9.70;99.90
316;DHT22;14128;48.686;9.738;2023-03-23T02:08:26;9.70;99.90
316;DHT22;14128;48.686;9.738;2023-03-23T02:10:54;9.70;99.90
316;DHT22;14128;48.686;9.738;2023-03-23T02:13:21;9.80;99.90
316;DHT22;14128;48.686;9.738;2023-03-23T02:15:55;9.80;99.90
316;DHT22;14128;48.686;9.738;2023-03-23T02:18:42;9.80;1.00
316;DHT22;14128;48.686;9.738;2023-03-23T02:24:56;9.90;1.00
316;DHT22;14128;48.686;9.738;2023-03-23T02:30:37;9.90;1.00
316;DHT22;14128;48.686;9.738;2023-03-23T02:33:20;10.00;1.00
316;DHT22;14128;48.686;9.738;2023-03-23T02:35:54;10.00;1.00
316;DHT22;14128;48.686;9.738;2023-03-23T02:38:26;10.00;99.90
316;DHT22;14128;48.686;9.738;2023-03-23T02:40:56;10.10;99.90
316;DHT22;14128;48.686;9.738;2023-03-23T02:43:29;10.10;15.70
316;DHT22;14128;48.686;9.738;2023-03-23T02:45:57;10.10;99.90
316;DHT22;14128;48.686;9.738;2023-03-23T02:48:29;10.20;3.20
316;DHT22;14128;48.686;9.738;2023-03-23T02:50:57;10.20;1.00
316;DHT22;14128;48.686;9.738;2023-03-23T02:53:26;10.30;1.00
316;DHT22;14128;48.686;9.738;2023-03-23T02:55:56;10.30;99.90
316;DHT22;14128;48.686;9.738;2023-03-23T02:58:25;10.40;99.90
316;DHT22;14128;48.686;9.738;2023-03-23T03:00:53;10.40;99.90
316;DHT22;14128;48.686;9.738;2023-03-23T03:03:24;10.40;41.20
316;DHT22;14128;48.686;9.738;2023-03-23T03:05:58;10.40;1.00
316;DHT22;14128;48.686;9.738;2023-03-23T03:08:37;10.50;99.90
316;DHT22;14128;48.686;9.738;2023-03-23T03:11:12;10.50;55.90
316;DHT22;14128;48.686;9.738;2023-03-23T03:13:45;10.50;99.90
316;DHT22;14128;48.686;9.738;2023-03-23T03:16:22;10.60;99.90
316;DHT22;14128;48.686;9.738;2023-03-23T03:18:54;10.60;99.90
316;DHT22;14128;48.686;9.738;2023-03-23T03:21:27;10.70;3.20
316;DHT22;14128;48.686;9.738;2023-03-23T03:23:56;10.70;1.00
316;DHT22;14128;48.686;9.738;2023-03-23T03:26:26;10.70;54.10
316;DHT22;14128;48.686;9.738;2023-03-23T03:28:54;10.70;1.00
316;DHT22;14128;48.686;9.738;2023-03-23T03:31:26;10.80;1.00
316;DHT22;14128;48.686;9.738;2023-03-23T03:33:54;10.80;99.90
316;DHT22;14128;48.686;9.738;2023-03-23T03:36:26;10.80;1.00
316;DHT22;14128;48.686;9.738;2023-03-23T03:38:54;10.90;99.90
316;DHT22;14128;48.686;9.738;2023-03-23T03:41:22;10.90;99.90
316;DHT22;14128;48.686;9.738;2023-03-23T03:43:49;10.90;99.90
316;DHT22;14128;48.686;9.738;2023-03-23T03:46:16;11.00;99.90
316;DHT22;14128;48.686;9.738;2023-03-23T03:48:43;11.00;99.90
316;DHT22;14128;48.686;9.738;2023-03-23T03:51:09;11.00;1.00
316;DHT22;14128;48.686;9.738;2023-03-23T03:53:38;11.00;99.90
316;DHT22;14128;48.686;9.738;2023-03-23T03:56:06;11.10;99.90
316;DHT22;14128;48.686;9.738;2023-03-23T03:58:32;11.20;99.90
316;DHT22;14128;48.686;9.738;2023-03-23T04:01:02;11.30;99.90
316;DHT22;14128;48.686;9.738;2023-03-23T04:03:29;11.30;1.00
316;DHT22;14128;48.686;9.738;2023-03-23T04:05:56;11.30;1.00
316;DHT22;14128;48.686;9.738;2023-03-23T04:08:25;11.40;1.00
316;DHT22;14128;48.686;9.738;2023-03-23T04:10:54;11.40;1.00
316;DHT22;14128;48.686;9.738;2023-03-23T04:13:22;11.40;1.00
316;DHT22;14128;48.686;9.738;2023-03-23T04:15:49;11.40;99.90
316;DHT22;14128;48.686;9.738;2023-03-23T04:18:16;11.50;86.20
316;DHT22;14128;48.686;9.738;2023-03-23T04:20:44;11.50;1.00
316;DHT22;14128;48.686;9.738;2023-03-23T04:23:14;11.60;99.90
316;DHT22;14128;48.686;9.738;2023-03-23T04:25:45;11.70;41.60
316;DHT22;14128;48.686;9.738;2023-03-23T04:28:13;11.80;1.00
316;DHT22;14128;48.686;9.738;2023-03-23T04:30:42;11.80;1.00
316;DHT22;14128;48.686;9.738;2023-03-23T04:33:09;11.90;99.90
316;DHT22;14128;48.686;9.738;2023-03-23T04:35:40;12.00;1.00
316;DHT22;14128;48.686;9.738;2023-03-23T04:38:07;12.00;1.00
316;DHT22;14128;48.686;9.738;2023-03-23T04:40:36;12.10;99.90
316;DHT22;14128;48.686;9.738;2023-03-23T04:43:03;12.20;1.00
316;DHT22;14128;48.686;9.738;2023-03-23T04:45:33;12.20;99.90
316;DHT22;14128;48.686;9.738;2023-03-23T04:48:03;12.50;1.00
316;DHT22;14128;48.686;9.738;2023-03-23T04:50:32;12.50;1.00
316;DHT22;14128;48.686;9.738;2023-03-23T04:53:00;12.70;1.00
316;DHT22;14128;48.686;9.738;2023-03-23T04:55:29;12.80;99.90
316;DHT22;14128;48.686;9.738;2023-03-23T04:57:56;12.80;1.00
316;DHT22;14128;48.686;9.738;2023-03-23T05:00:25;12.90;1.00
316;DHT22;14128;48.686;9.738;2023-03-23T05:02:53;12.90;1.00
316;DHT22;14128;48.686;9.738;2023-03-23T05:05:21;12.90;1.00
316;DHT22;14128;48.686;9.738;2023-03-23T05:07:50;12.90;99.90
316;DHT22;14128;48.686;9.738;2023-03-23T05:10:17;12.90;85.70
316;DHT22;14128;48.686;9.738;2023-03-23T05:12:44;12.90;9.80
316;DHT22;14128;48.686;9.738;2023-03-23T05:15:15;12.80;1.00
316;DHT22;14128;48.686;9.738;2023-03-23T05:17:42;12.80;1.00
316;DHT22;14128;48.686;9.738;2023-03-23T05:20:13;12.80;1.00
316;DHT22;14128;48.686;9.738;2023-03-23T05:22:43;12.90;99.90
316;DHT22;14128;48.686;9.738;2023-03-23T05:25:14;12.90;77.50
316;DHT22;14128;48.686;9.738;2023-03-23T05:27:45;12.90;99.90
316;DHT22;14128;48.686;9.738;2023-03-23T05:30:14;12.90;50.70
316;DHT22;14128;48.686;9.738;2023-03-23T05:32:42;12.90;1.00
316;DHT22;14128;48.686;9.738;2023-03-23T05:35:12;13.00;99.90
316;DHT22;14128;48.686;9.738;2023-03-23T05:37:39;13.00;65.10
316;DHT22;14128;48.686;9.738;2023-03-23T05:40:07;13.00;99.90
316;DHT22;14128;48.686;9.738;2023-03-23T05:42:34;13.00;99.90
316;DHT22;14128;48.686;9.738;2023-03-23T05:45:02;13.10;99.90
316;DHT22;14128;48.686;9.738;2023-03-23T05:47:29;13.20;1.00
316;DHT22;14128;48.686;9.738;2023-03-23T05:49:56;13.30;1.00
316;DHT22;14128;48.686;9.738;2023-03-23T05:52:24;13.40;1.00
316;DHT22;14128;48.686;9.738;2023-03-23T05:54:52;13.30;1.00
316;DHT22;14128;48.686;9.738;2023-03-23T05:57:19;13.40;10.40
316;DHT22;14128;48.686;9.738;2023-03-23T05:59:47;13.30;99.90
316;DHT22;14128;48.686;9.738;2023-03-23T06:02:14;13.50;1.00
316;DHT22;14128;48.686;9.738;2023-03-23T06:04:41;13.50;1.00
316;DHT22;14128;48.686;9.738;2023-03-23T06:07:08;13.50;1.00
316;DHT22;14128;48.686;9.738;2023-03-23T06:09:39;13.50;99.90
316;DHT22;14128;48.686;9.738;2023-03-23T06:12:07;13.50;99.90
316;DHT22;14128;48.686;9.738;2023-03-23T06:14:34;13.60;1.00
316;DHT22;14128;48.686;9.738;2023-03-23T06:17:01;13.60;99.90
316;DHT22;14128;48.686;9.738;2023-03-23T06:19:28;13.70;99.90
316;DHT22;14128;48.686;9.738;2023-03-23T06:21:55;13.80;99.90
316;DHT22;14128;48.686;9.738;2023-03-23T06:24:22;13.90;99.90
316;DHT22;14128;48.686;9.738;2023-03-23T06:26:50;14.20;1.00
316;DHT22;14128;48.686;9.738;2023-03-23T06:29:17;14.20;99.90
316;DHT22;14128;48.686;9.738;2023-03-23T06:31:47;14.20;1.00
316;DHT22;14128;48.686;9.738;2023-03-23T06:34:14;14.40;1.00
316;DHT22;14128;48.686;9.738;2023-03-23T06:36:42;14.50;99.90
316;DHT22;14128;48.686;9.738;2023-03-23T06:39:10;14.60;99.90
316;DHT22;14128;48.686;9.738;2023-03-23T06:41:38;14.70;1.00
316;DHT22;14128;48.686;9.738;2023-03-23T06:44:06;14.80;1.00
316;DHT22;14128;48.686;9.738;2023-03-23T06:46:34;14.80;99.90
316;DHT22;14128;48.686;9.738;2023-03-23T06:49:01;14.80;9.20
316;DHT22;14128;48.686;9.738;2023-03-23T06:51:27;14.80;99.90
316;DHT22;14128;48.686;9.738;2023-03-23T06:53:54;14.80;99.90
316;DHT22;14128;48.686;9.738;2023-03-23T06:56:22;14.90;99.90
316;DHT22;14128;48.686;9.738;2023-03-23T06:58:49;15.00;1.00
316;DHT22;14128;48.686;9.738;2023-03-23T07:01:17;15.20;1.00
316;DHT22;14128;48.686;9.738;2023-03-23T07:03:44;15.10;1.00
316;DHT22;14128;48.686;9.738;2023-03-23T07:06:12;15.00;99.90
316;DHT22;14128;48.686;9.738;2023-03-23T07:08:38;14.90;99.90
316;DHT22;14128;48.686;9.738;2023-03-23T07:11:05;14.80;99.90
316;DHT22;14128;48.686;9.738;2023-03-23T07:13:33;14.90;99.90
316;DHT22;14128;48.686;9.738;2023-03-23T07:16:00;14.90;1.00
316;DHT22;14128;48.686;9.738;2023-03-23T07:18:28;15.00;1.00
316;DHT22;14128;48.686;9.738;2023-03-23T07:20:55;15.10;99.90
316;DHT22;14128;48.686;9.738;2023-03-23T07:23:22;15.30;99.90
316;DHT22;14128;48.686;9.738;2023-03-23T07:25:48;15.40;99.90
316;DHT22;14128;48.686;9.738;2023-03-23T07:28:16;15.60;47.90
316;DHT22;14128;48.686;9.738;2023-03-23T07:30:44;15.70;99.90
316;DHT22;14128;48.686;9.738;2023-03-23T07:33:12;15.80;99.90
316;DHT22;14128;48.686;9.738;2023-03-23T07:35:40;15.80;1.00
316;DHT22;14128;48.686;9.738;2023-03-23T07:38:07;15.90;1.00
316;DHT22;14128;48.686;9.738;2023-03-23T07:40:34;16.10;1.00
316;DHT22;14128;48.686;9.738;2023-03-23T07:43:02;16.30;99.90
316;DHT22;14128;48.686;9.738;2023-03-23T07:45:30;16.60;1.00
316;DHT22;14128;48.686;9.738;2023-03-23T07:47:57;16.80;99.90
316;DHT22;14128;48.686;9.738;2023-03-23T07:50:24;16.90;99.90
316;DHT22;14128;48.686;9.738;2023-03-23T07:52:54;16.70;1.00
316;DHT22;14128;48.686;9.738;2023-03-23T07:55:21;16.70;99.90
316;DHT22;14128;48.686;9.738;2023-03-23T07:57:51;16.50;99.90
316;DHT22;14128;48.686;9.738;2023-03-23T08:00:20;16.40;99.90
316;DHT22;14128;48.686;9.738;2023-03-23T08:02:50;16.20;1.00
316;DHT22;14128;48.686;9.738;2023-03-23T08:05:18;16.10;99.90
316;DHT22;14128;48.686;9.738;2023-03-23T08:07:46;16.10;99.90
316;DHT22;14128;48.686;9.738;2023-03-23T08:10:15;16.10;99.90
316;DHT22;14128;48.686;9.738;2023-03-23T08:12:44;16.30;99.90
316;DHT22;14128;48.686;9.738;2023-03-23T08:15:13;16.50;99.90
316;DHT22;14128;48.686;9.738;2023-03-23T08:17:41;16.70;99.90
316;DHT22;14128;48.686;9.738;2023-03-23T08:20:09;16.70;99.90
316;DHT22;14128;48.686;9.738;2023-03-23T08:22:39;16.80;1.00
316;DHT22;14128;48.686;9.738;2023-03-23T08:25:08;16.80;99.90
316;DHT22;14128;48.686;9.738;2023-03-23T08:27:37;16.80;1.00
316;DHT22;14128;48.686;9.738;2023-03-23T08:30:10;16.90;1.00
316;DHT22;14128;48.686;9.738;2023-03-23T08:32:37;17.00;99.90
316;DHT22;14128;48.686;9.738;2023-03-23T08:35:06;17.00;1.00
316;DHT22;14128;48.686;9.738;2023-03-23T08:37:34;17.10;1.00
316;DHT22;14128;48.686;9.738;2023-03-23T08:40:02;17.10;14.00
316;DHT22;14128;48.686;9.738;2023-03-23T08:42:35;17.30;99.90
316;DHT22;14128;48.686;9.738;2023-03-23T08:45:04;17.40;99.90
316;DHT22;14128;48.686;9.738;2023-03-23T08:47:34;17.50;99.90
316;DHT22;14128;48.686;9.738;2023-03-23T08:50:02;17.60;99.90
316;DHT22;14128;48.686;9.738;2023-03-23T08:52:29;17.80;99.90
316;DHT22;14128;48.686;9.738;2023-03-23T08:54:56;18.10;99.90
316;DHT22;14128;48.686;9.738;2023-03-23T08:57:23;18.40;1.00
316;DHT22;14128;48.686;9.738;2023-03-23T08:59:51;18.50;1.00
316;DHT22;14128;48.686;9.738;2023-03-23T09:02:19;18.60;99.90
316;DHT22;14128;48.686;9.738;2023-03-23T09:04:46;18.60;99.90
316;DHT22;14128;48.686;9.738;2023-03-23T09:07:14;18.40;99.90
316;DHT22;14128;48.686;9.738;2023-03-23T09:09:41;18.10;1.00
316;DHT22;14128;48.686;9.738;2023-03-23T09:12:09;18.10;99.90
316;DHT22;14128;48.686;9.738;2023-03-23T09:14:36;17.80;99.90
316;DHT22;14128;48.686;9.738;2023-03-23T09:17:05;17.50;1.00
316;DHT22;14128;48.686;9.738;2023-03-23T09:19:33;17.10;99.90
316;DHT22;14128;48.686;9.738;2023-03-23T09:22:00;17.20;99.90
316;DHT22;14128;48.686;9.738;2023-03-23T09:24:27;17.10;99.90
316;DHT22;14128;48.686;9.738;2023-03-23T09:26:54;17.00;1.00
316;DHT22;14128;48.686;9.738;2023-03-23T09:29:21;16.90;1.00
316;DHT22;14128;48.686;9.738;2023-03-23T09:31:47;16.90;1.00
316;DHT22;14128;48.686;9.738;2023-03-23T09:34:16;16.90;1.00
316;DHT22;14128;48.686;9.738;2023-03-23T09:36:42;16.90;99.90
316;DHT22;14128;48.686;9.738;2023-03-23T09:39:09;17.00;46.00
316;DHT22;14128;48.686;9.738;2023-03-23T09:44:47;17.00;99.90
316;DHT22;14128;48.686;9.738;2023-03-23T09:47:27;16.80;1.00
316;DHT22;14128;48.686;9.738;2023-03-23T09:50:00;17.00;1.00
316;DHT22;14128;48.686;9.738;2023-03-23T09:52:35;17.00;99.90
316;DHT22;14128;48.686;9.738;2023-03-23T09:55:04;16.90;99.90
316;DHT22;14128;48.686;9.738;2023-03-23T09:57:37;16.90;1.00
316;DHT22;14128;48.686;9.738;2023-03-23T10:00:11;16.80;99.90
316;DHT22;14128;48.686;9.738;2023-03-23T10:02:46;16.80;99.90
316;DHT22;14128;48.686;9.738;2023-03-23T10:05:27;16.90;99.90
316;DHT22;14128;48.686;9.738;2023-03-23T10:07:56;17.00;85.80
316;DHT22;14128;48.686;9.738;2023-03-23T10:10:29;17.00;99.90
316;DHT22;14128;48.686;9.738;2023-03-23T10:13:01;16.90;99.90
316;DHT22;14128;48.686;9.738;2023-03-23T10:15:33;16.80;1.00
316;DHT22;14128;48.686;9.738;2023-03-23T10:18:02;16.80;99.90
316;DHT22;14128;48.686;9.738;2023-03-23T10:20:41;16.70;99.90
316;DHT22;14128;48.686;9.738;2023-03-23T10:23:20;16.60;99.90
316;DHT22;14128;48.686;9.738;2023-03-23T10:25:52;16.60;20.60
316;DHT22;14128;48.686;9.738;2023-03-23T10:28:35;16.60;99.90
316;DHT22;14128;48.686;9.738;2023-03-23T10:31:03;16.60;1.00
316;DHT22;14128;48.686;9.738;2023-03-23T10:33:36;16.40;1.00
316;DHT22;14128;48.686;9.738;2023-03-23T10:36:08;16.50;99.90
316;DHT22;14128;48.686;9.738;2023-03-23T10:38:38;16.60;99.90
316;DHT22;14128;48.686;9.738;2023-03-23T10:41:10;16.80;1.00
316;DHT22;14128;48.686;9.738;2023-03-23T10:43:38;17.00;99.90
316;DHT22;14128;48.686;9.738;2023-03-23T10:46:22;17.00;1.00
316;DHT22;14128;48.686;9.738;2023-03-23T10:48:50;17.00;1.00
316;DHT22;14128;48.686;9.738;2023-03-23T10:51:23;17.30;99.90
316;DHT22;14128;48.686;9.738;2023-03-23T10:53:57;17.30;99.90
316;DHT22;14128;48.686;9.738;2023-03-23T10:56:27;17.30;1.00
316;DHT22;14128;48.686;9.738;2023-03-23T10:58:55;17.10;99.90
316;DHT22;14128;48.686;9.738;2023-03-23T11:01:30;17.10;99.90
316;DHT22;14128;48.686;9.738;2023-03-23T11:03:57;17.20;1.00
316;DHT22;14128;48.686;9.738;2023-03-23T11:06:29;17.10;99.90
316;DHT22;14128;48.686;9.738;2023-03-23T11:09:00;17.10;99.90
316;DHT22;14128;48.686;9.738;2023-03-23T11:11:31;16.90;99.90
316;DHT22;14128;48.686;9.738;2023-03-23T11:14:00;17.00;99.90
316;DHT22;14128;48.686;9.738;2023-03-23T11:16:29;16.70;99.90
316;DHT22;14128;48.686;9.738;2023-03-23T11:18:57;16.70;93.80
316;DHT22;14128;48.686;9.738;2023-03-23T11:21:27;17.00;1.00
316;DHT22;14128;48.686;9.738;2023-03-23T11:23:55;17.30;1.00
316;DHT22;14128;48.686;9.738;2023-03-23T11:26:26;17.50;1.00
316;DHT22;14128;48.686;9.738;2023-03-23T11:28:56;17.90;99.90
316;DHT22;14128;48.686;9.738;2023-03-23T11:31:28;18.20;1.00
316;DHT22;14128;48.686;9.738;2023-03-23T11:33:58;18.00;99.90
316;DHT22;14128;48.686;9.738;2023-03-23T11:36:32;18.00;99.90
316;DHT22;14128;48.686;9.738;2023-03-23T11:38:59;18.40;1.00
316;DHT22;14128;48.686;9.738;2023-03-23T11:41:33;18.40;1.00
316;DHT22;14128;48.686;9.738;2023-03-23T11:44:08;18.40;5.80
316;DHT22;14128;48.686;9.738;2023-03-23T11:46:42;18.80;99.90
316;DHT22;14128;48.686;9.738;2023-03-23T11:49:19;19.10;99.90
316;DHT22;14128;48.686;9.738;2023-03-23T11:51:50;19.30;99.90
316;DHT22;14128;48.686;9.738;2023-03-23T11:54:22;19.40;99.90
316;DHT22;14128;48.686;9.738;2023-03-23T11:56:50;19.70;1.00
316;DHT22;14128;48.686;9.738;2023-03-23T11:59:27;20.20;1.00
316;DHT22;14128;48.686;9.738;2023-03-23T12:01:57;20.40;1.00
316;DHT22;14128;48.686;9.738;2023-03-23T12:04:38;20.50;1.00
316;DHT22;14128;48.686;9.738;2023-03-23T12:07:19;20.60;98.20
316;DHT22;14128;48.686;9.738;2023-03-23T12:09:56;20.90;99.90
316;DHT22;14128;48.686;9.738;2023-03-23T12:12:32;20.80;1.00
316;DHT22;14128;48.686;9.738;2023-03-23T12:15:08;20.50;99.90
316;DHT22;14128;48.686;9.738;2023-03-23T12:17:48;20.50;1.00
316;DHT22;14128;48.686;9.738;2023-03-23T12:20:24;20.40;1.00
316;DHT22;14128;48.686;9.738;2023-03-23T12:23:14;20.20;99.90
316;DHT22;14128;48.686;9.738;2023-03-23T12:26:12;20.30;1.00
316;DHT22;14128;48.686;9.738;2023-03-23T12:31:37;20.80;99.90
316;DHT22;14128;48.686;9.738;2023-03-23T12:34:16;20.80;1.00
316;DHT22;14128;48.686;9.738;2023-03-23T12:37:02;21.10;99.90
316;DHT22;14128;48.686;9.738;2023-03-23T12:39:53;21.40;99.90
316;DHT22;14128;48.686;9.738;2023-03-23T12:42:29;21.40;99.90
316;DHT22;14128;48.686;9.738;2023-03-23T12:45:06;21.00;1.00
316;DHT22;14128;48.686;9.738;2023-03-23T12:47:38;21.10;1.00
316;DHT22;14128;48.686;9.738;2023-03-23T12:50:13;21.20;99.90
316;DHT22;14128;48.686;9.738;2023-03-23T12:52:46;20.90;1.00
316;DHT22;14128;48.686;9.738;2023-03-23T12:55:19;20.90;1.00
316;DHT22;14128;48.686;9.738;2023-03-23T12:57:51;20.90;99.90
316;DHT22;14128;48.686;9.738;2023-03-23T13:00:23;20.30;1.00
316;DHT22;14128;48.686;9.738;2023-03-23T13:02:56;19.90;99.90
316;DHT22;14128;48.686;9.738;2023-03-23T13:05:32;19.80;99.90
316;DHT22;14128;48.686;9.738;2023-03-23T13:08:04;19.50;99.90
316;DHT22;14128;48.686;9.738;2023-03-23T13:10:38;19.50;36.90
316;DHT22;14128;48.686;9.738;2023-03-23T13:13:12;19.20;1.00
316;DHT22;14128;48.686;9.738;2023-03-23T13:15:48;19.00;99.90
316;DHT22;14128;48.686;9.738;2023-03-23T13:18:23;18.80;99.90
316;DHT22;14128;48.686;9.738;2023-03-23T13:20:59;18.80;1.00
316;DHT22;14128;48.686;9.738;2023-03-23T13:23:30;19.10;1.00
316;DHT22;14128;48.686;9.738;2023-03-23T13:26:02;19.10;99.90
316;DHT22;14128;48.686;9.738;2023-03-23T13:28:31;19.30;99.90
316;DHT22;14128;48.686;9.738;2023-03-23T13:31:01;19.30;99.90
316;DHT22;14128;48.686;9.738;2023-03-23T13:33:33;19.20;96.40
316;DHT22;14128;48.686;9.738;2023-03-23T13:36:08;19.00;23.10
316;DHT22;14128;48.686;9.738;2023-03-23T13:38:36;18.90;99.90
316;DHT22;14128;48.686;9.738;2023-03-23T13:41:11;19.00;99.90
316;DHT22;14128;48.686;9.738;2023-03-23T13:43:40;19.00;99.90
316;DHT22;14128;48.686;9.738;2023-03-23T13:46:10;19.20;99.90
316;DHT22;14128;48.686;9.738;2023-03-23T13:48:43;19.40;99.90
316;DHT22;14128;48.686;9.738;2023-03-23T13:51:33;19.60;99.90
316;DHT22;14128;48.686;9.738;2023-03-23T13:54:19;19.80;1.00
316;DHT22;14128;48.686;9.738;2023-03-23T13:56:55;19.80;1.00
316;DHT22;14128;48.686;9.738;2023-03-23T13:59:32;19.60;99.90
316;DHT22;14128;48.686;9.738;2023-03-23T14:02:27;19.40;99.90
316;DHT22;14128;48.686;9.738;2023-03-23T14:04:55;19.20;99.90
316;DHT22;14128;48.686;9.738;2023-03-23T14:07:23;19.00;99.90
316;DHT22;14128;48.686;9.738;2023-03-23T14:09:50;19.00;72.30
316;DHT22;14128;48.686;9.738;2023-03-23T14:12:20;18.90;1.00
316;DHT22;14128;48.686;9.738;2023-03-23T14:14:50;18.80;99.90
316;DHT22;14128;48.686;9.738;2023-03-23T14:17:24;18.60;1.00
316;DHT22;14128;48.686;9.738;2023-03-23T14:19:52;18.60;99.90
316;DHT22;14128;48.686;9.738;2023-03-23T14:22:23;18.40;8.00
316;DHT22;14128;48.686;9.738;2023-03-23T14:24:52;18.50;1.00
316;DHT22;14128;48.686;9.738;2023-03-23T14:27:22;18.60;99.90
316;DHT22;14128;48.686;9.738;2023-03-23T14:29:57;18.60;99.90
316;DHT22;14128;48.686;9.738;2023-03-23T14:32:24;18.70;1.00
316;DHT22;14128;48.686;9.738;2023-03-23T14:34:53;18.80;99.90
316;DHT22;14128;48.686;9.738;2023-03-23T14:37:21;18.80;76.30
316;DHT22;14128;48.686;9.738;2023-03-23T14:39:50;18.80;99.90
316;DHT22;14128;48.686;9.738;2023-03-23T14:42:26;18.60;1.00
316;DHT22;14128;48.686;9.738;2023-03-23T14:44:54;18.40;99.90
316;DHT22;14128;48.686;9.738;2023-03-23T14:47:23;18.20;1.00
316;DHT22;14128;48.686;9.738;2023-03-23T14:49:53;18.20;99.90
316;DHT22;14128;48.686;9.738;2023-03-23T14:52:23;17.90;99.90
316;DHT22;14128;48.686;9.738;2023-03-23T14:54:51;17.90;99.90
316;DHT22;14128;48.686;9.738;2023-03-23T14:57:19;17.80;34.00
316;DHT22;14128;48.686;9.738;2023-03-23T14:59:53;17.70;99.90
316;DHT22;14128;48.686;9.738;2023-03-23T15:02:23;17.70;99.90
316;DHT22;14128;48.686;9.738;2023-03-23T15:04:54;17.70;1.00
316;DHT22;14128;48.686;9.738;2023-03-23T15:07:26;17.80;99.90
316;DHT22;14128;48.686;9.738;2023-03-23T15:09:55;18.00;99.90
316;DHT22;14128;48.686;9.738;2023-03-23T15:12:23;18.00;99.90
316;DHT22;14128;48.686;9.738;2023-03-23T15:14:55;18.00;1.00
316;DHT22;14128;48.686;9.738;2023-03-23T15:17:23;18.10;99.90
316;DHT22;14128;48.686;9.738;2023-03-23T15:19:51;18.20;1.00
316;DHT22;14128;48.686;9.738;2023-03-23T15:22:22;18.20;1.00
316;DHT22;14128;48.686;9.738;2023-03-23T15:24:50;18.20;1.00
316;DHT22;14128;48.686;9.738;2023-03-23T15:27:24;18.30;99.90
316;DHT22;14128;48.686;9.738;2023-03-23T15:29:55;18.40;99.90
316;DHT22;14128;48.686;9.738;2023-03-23T15:32:27;18.30;99.90
316;DHT22;14128;48.686;9.738;2023-03-23T15:34:56;18.30;99.90
316;DHT22;14128;48.686;9.738;2023-03-23T15:37:27;18.30;1.00
316;DHT22;14128;48.686;9.738;2023-03-23T15:39:55;18.40;99.90
316;DHT22;14128;48.686;9.738;2023-03-23T15:42:25;18.40;99.90
316;DHT22;14128;48.686;9.738;2023-03-23T15:45:04;18.20;26.40
316;DHT22;14128;48.686;9.738;2023-03-23T15:47:36;18.20;26.60
316;DHT22;14128;48.686;9.738;2023-03-23T15:50:09;18.10;43.20
316;DHT22;14128;48.686;9.738;2023-03-23T15:52:37;18.00;99.90
316;DHT22;14128;48.686;9.738;2023-03-23T15:55:19;18.00;1.00
316;DHT22;14128;48.686;9.738;2023-03-23T15:57:46;17.90;1.00
316;DHT22;14128;48.686;9.738;2023-03-23T16:00:16;17.80;99.90
316;DHT22;14128;48.686;9.738;2023-03-23T16:02:45;17.70;1.00
316;DHT22;14128;48.686;9.738;2023-03-23T16:05:13;17.60;99.90
316;DHT22;14128;48.686;9.738;2023-03-23T16:07:40;17.40;1.00
316;DHT22;14128;48.686;9.738;2023-03-23T16:10:14;17.30;99.90
316;DHT22;14128;48.686;9.738;2023-03-23T16:12:41;17.10;1.00
316;DHT22;14128;48.686;9.738;2023-03-23T16:15:08;17.00;99.90
316;DHT22;14128;48.686;9.738;2023-03-23T16:17:37;16.90;99.90
316;DHT22;14128;48.686;9.738;2023-03-23T16:20:11;16.80;1.00
316;DHT22;14128;48.686;9.738;2023-03-23T16:22:38;16.70;99.90
316;DHT22;14128;48.686;9.738;2023-03-23T16:25:06;16.60;2.00
316;DHT22;14128;48.686;9.738;2023-03-23T16:27:33;16.50;99.90
316;DHT22;14128;48.686;9.738;2023-03-23T16:30:00;16.50;99.90
316;DHT22;14128;48.686;9.738;2023-03-23T16:32:29;16.40;99.90
316;DHT22;14128;48.686;9.738;2023-03-23T16:34:57;16.40;1.00
316;DHT22;14128;48.686;9.738;2023-03-23T16:37:24;16.40;1.00
316;DHT22;14128;48.686;9.738;2023-03-23T16:39:51;16.40;99.90
316;DHT22;14128;48.686;9.738;2023-03-23T16:42:17;16.40;99.90